Time;durP1;ratioP1;P1;durP2;ratioP2;P2;SDS_P1;SDS_P2;PMS_P1;PMS_P2;Temp;Humidity;BMP_temperature;BMP_pressure;BME280_temperature;BME280_humidity;BME280_pressure;Samples;Min_cycle;Max_cycle;Signal;HPM_P1;HPM_P2
2023/09/14 00:00:15;;;;;;;1.60;0.70;;;;;;;19.33;82.42;100725.72;2041722;29;20033;-70
2023/09/14 00:01:26;;;;;;;1.40;0.80;;;;;;;19.35;82.24;100730.84;2035133;29;20048;-69
2023/09/14 00:02:28;;;;;;;3.95;1.00;;;;;;;19.35;82.42;100733.56;2026231;29;20080;-69
2023/09/14 00:03:29;;;;;;;2.38;0.80;;;;;;;19.34;82.42;100730.03;2026440;29;20133;-69
2023/09/14 00:04:33;;;;;;;1.60;0.73;;;;;;;19.33;82.28;100724.94;2041523;28;20051;-69
2023/09/14 00:05:41;;;;;;;3.75;0.70;;;;;;;19.33;82.19;100735.84;2025837;29;20892;-69
2023/09/14 00:06:46;;;;;;;1.50;0.93;;;;;;;19.33;82.25;100733.91;2035093;29;20048;-69
2023/09/14 00:07:49;;;;;;;2.20;0.80;;;;;;;19.34;82.12;100734.69;2025133;29;20052;-69
2023/09/14 00:08:51;;;;;;;1.33;0.80;;;;;;;19.35;82.22;100736.28;2036356;28;20032;-69
2023/09/14 00:09:53;;;;;;;2.00;0.80;;;;;;;19.35;82.15;100736.28;2049578;28;20035;-70
2023/09/14 00:11:17;;;;;;;1.80;0.75;;;;;;;19.34;82.24;100734.69;2034401;28;20075;-69
2023/09/14 00:12:19;;;;;;;0.90;0.70;;;;;;;19.33;82.28;100733.13;2030997;29;20958;-69
2023/09/14 00:13:20;;;;;;;3.88;0.80;;;;;;;19.35;82.10;100741.75;2027591;29;20951;-69
2023/09/14 00:14:22;;;;;;;2.63;0.80;;;;;;;19.35;82.23;100736.28;2026087;29;20192;-69
2023/09/14 00:15:23;;;;;;;1.08;0.70;;;;;;;19.34;82.31;100735.50;2026441;29;20025;-69
2023/09/14 00:16:25;;;;;;;7.82;1.10;;;;;;;19.35;81.97;100747.97;2033976;29;20024;-69
2023/09/14 00:17:27;;;;;;;1.73;0.95;;;;;;;19.34;82.22;100742.88;2026161;29;20044;-69
2023/09/14 00:18:29;;;;;;;2.30;0.80;;;;;;;19.34;82.29;100743.66;2018452;29;20152;-69
2023/09/14 00:19:31;;;;;;;2.00;0.70;;;;;;;19.35;82.23;100747.19;2025674;29;20037;-69
2023/09/14 00:20:34;;;;;;;1.60;0.90;;;;;;;19.34;82.17;100745.59;2041759;29;20051;-70
2023/09/14 00:21:44;;;;;;;1.80;0.73;;;;;;;19.34;82.18;100742.88;2041623;29;20169;-69
2023/09/14 00:22:49;;;;;;;2.83;0.80;;;;;;;19.35;82.25;100747.19;2034042;29;20032;-69
2023/09/14 00:23:51;;;;;;;1.70;0.90;;;;;;;19.34;82.30;100740.16;2034233;29;20040;-69
2023/09/14 00:24:53;;;;;;;3.65;0.93;;;;;;;19.35;82.22;100744.47;2042203;29;21267;-69
2023/09/14 00:25:54;;;;;;;2.20;0.90;;;;;;;19.34;82.33;100737.44;2033876;29;20041;-69
2023/09/14 00:26:56;;;;;;;3.33;0.90;;;;;;;19.34;82.16;100740.16;2034036;29;20040;-69
2023/09/14 00:27:58;;;;;;;2.13;0.85;;;;;;;19.35;82.40;100747.19;2033954;29;20785;-69
2023/09/14 00:28:59;;;;;;;3.00;0.95;;;;;;;19.35;82.25;100750.72;2026103;29;20099;-69
2023/09/14 00:30:03;;;;;;;1.30;0.80;;;;;;;19.34;82.48;100749.13;2026238;29;20914;-69
2023/09/14 00:31:05;;;;;;;1.83;0.77;;;;;;;19.34;82.35;100742.88;2033904;29;20033;-69
2023/09/14 00:32:07;;;;;;;2.50;0.90;;;;;;;19.34;82.33;100745.59;2033830;29;20155;-69
2023/09/14 00:33:08;;;;;;;1.05;0.90;;;;;;;19.35;82.37;100749.91;2034311;29;20029;-69
2023/09/14 00:34:20;;;;;;;1.80;0.68;;;;;;;19.34;82.32;100748.34;2033127;29;20059;-69
2023/09/14 00:35:27;;;;;;;1.10;0.90;;;;;;;19.34;82.35;100737.44;2034361;29;20051;-69
2023/09/14 00:36:28;;;;;;;1.17;0.80;;;;;;;19.35;82.41;100747.97;2033584;29;20032;-70
2023/09/14 00:37:47;;;;;;;2.95;0.90;;;;;;;19.35;82.32;100747.19;2041624;29;20158;-71
2023/09/14 00:38:49;;;;;;;2.72;0.77;;;;;;;19.33;82.52;100741.28;2034429;29;20040;-70
2023/09/14 00:39:58;;;;;;;1.52;0.80;;;;;;;19.34;82.60;100742.88;2041756;29;20040;-70
2023/09/14 00:41:05;;;;;;;3.42;0.90;;;;;;;19.33;82.50;100750.25;2041975;29;20048;-70
2023/09/14 00:42:07;;;;;;;1.55;0.90;;;;;;;19.32;82.48;100747.84;2042427;28;20028;-71
2023/09/14 00:43:15;;;;;;;2.92;0.90;;;;;;;19.32;82.45;100742.41;2041908;29;20836;-71
2023/09/14 00:44:16;;;;;;;2.45;0.88;;;;;;;19.32;82.52;100745.91;2042543;28;20066;-71
2023/09/14 00:45:24;;;;;;;1.55;1.10;;;;;;;19.33;82.26;100744.81;2041802;29;20951;-71
2023/09/14 00:46:26;;;;;;;2.88;1.02;;;;;;;19.33;82.49;100744.81;2041340;29;20093;-70
2023/09/14 00:47:28;;;;;;;2.58;0.90;;;;;;;19.34;82.35;100751.06;2034000;29;20044;-70
2023/09/14 00:48:38;;;;;;;2.75;1.00;;;;;;;19.32;82.58;100747.84;2035304;29;20120;-70
2023/09/14 00:49:40;;;;;;;1.75;0.98;;;;;;;19.33;82.37;100752.19;2034027;29;20041;-70
2023/09/14 00:50:44;;;;;;;2.70;1.02;;;;;;;19.31;82.47;100747.06;2041617;29;20036;-70
2023/09/14 00:51:46;;;;;;;1.55;0.75;;;;;;;19.32;82.47;100747.84;2033745;29;20135;-70
2023/09/14 00:52:57;;;;;;;2.30;0.90;;;;;;;19.31;82.48;100751.72;2034492;28;20147;-70
2023/09/14 00:53:59;;;;;;;3.95;1.20;;;;;;;19.32;82.44;100750.59;2042251;29;21292;-70
2023/09/14 00:55:06;;;;;;;2.28;0.90;;;;;;;19.30;82.46;100744.69;2033751;29;20218;-70
2023/09/14 00:56:08;;;;;;;2.45;0.75;;;;;;;19.28;82.30;100739.56;2033515;29;21072;-70
2023/09/14 00:57:10;;;;;;;2.88;1.00;;;;;;;19.29;82.38;100748.53;2041707;29;20028;-71
2023/09/14 00:58:15;;;;;;;0.88;0.70;;;;;;;19.29;82.43;100740.34;2034149;29;20039;-71
2023/09/14 00:59:19;;;;;;;1.70;0.70;;;;;;;19.28;82.25;100742.28;2034686;29;20028;-72
2023/09/14 01:00:21;;;;;;;1.67;0.90;;;;;;;19.27;82.22;100740.69;2034210;29;20025;-71
2023/09/14 01:01:22;;;;;;;3.05;0.90;;;;;;;19.26;82.25;100744.53;2033769;29;20033;-71
2023/09/14 01:02:29;;;;;;;1.73;0.88;;;;;;;19.27;82.26;100751.59;2034573;29;20071;-70
2023/09/14 01:03:34;;;;;;;1.85;1.08;;;;;;;19.26;82.29;100738.28;2042331;28;20047;-70
2023/09/14 01:04:36;;;;;;;2.63;1.10;;;;;;;19.26;82.34;100749.19;2041399;29;20078;-70
2023/09/14 01:05:39;;;;;;;1.80;0.80;;;;;;;19.25;82.22;100745.66;2041113;29;20061;-70
2023/09/14 01:06:41;;;;;;;1.42;1.00;;;;;;;19.26;82.07;100743.72;2033853;29;20947;-70
2023/09/14 01:07:46;;;;;;;3.85;1.10;;;;;;;19.25;82.29;100748.38;2025311;29;20024;-71
2023/09/14 01:08:48;;;;;;;1.92;0.70;;;;;;;19.25;82.05;100747.59;2028377;28;20033;-71
2023/09/14 01:09:53;;;;;;;1.60;0.80;;;;;;;19.25;82.20;100747.59;2041539;28;20124;-70
2023/09/14 01:10:55;;;;;;;1.88;0.90;;;;;;;19.26;82.10;100754.63;2042007;28;20075;-71
2023/09/14 01:12:26;;;;;;;1.92;1.00;;;;;;;19.24;82.27;100751.47;2034888;29;20029;-70
2023/09/14 01:13:50;;;;;;;4.28;1.20;;;;;;;19.22;82.18;100754.50;2032619;29;20036;-71
2023/09/14 01:15:31;;;;;;;1.35;1.10;;;;;;;19.23;82.02;100750.66;2028990;29;20060;-71
2023/09/14 01:16:46;;;;;;;2.75;1.02;;;;;;;19.22;82.25;100751.78;2038578;29;20040;-71
2023/09/14 01:18:02;;;;;;;6.10;1.10;;;;;;;19.24;82.06;100762.38;2029175;29;20068;-70
2023/09/14 01:19:24;;;;;;;2.78;0.80;;;;;;;19.24;82.20;100756.91;2033753;29;20025;-70
2023/09/14 01:20:49;;;;;;;1.65;1.00;;;;;;;19.21;82.29;100764.63;2030944;29;20037;-70
2023/09/14 01:22:02;;;;;;;2.38;1.17;;;;;;;19.22;82.10;100762.69;2024804;29;20045;-70
2023/09/14 01:23:14;;;;;;;1.73;0.90;;;;;;;19.21;82.23;100764.63;2035026;29;20041;-70
2023/09/14 01:24:37;;;;;;;1.40;1.00;;;;;;;19.20;82.05;100768.47;2033710;29;20043;-70
2023/09/14 01:25:46;;;;;;;4.30;1.10;;;;;;;19.20;82.25;100768.47;2033732;29;20104;-70
2023/09/14 01:26:49;;;;;;;2.75;1.20;;;;;;;19.20;82.45;100773.13;2033961;29;20032;-70
2023/09/14 01:27:52;;;;;;;3.20;1.30;;;;;;;19.19;82.29;100766.88;2026068;29;20156;-70
2023/09/14 01:28:59;;;;;;;1.15;0.90;;;;;;;19.19;82.31;100769.59;2033874;29;20922;-70
2023/09/14 01:30:00;;;;;;;3.38;0.90;;;;;;;19.20;82.30;100776.66;2034115;29;20024;-70
2023/09/14 01:31:04;;;;;;;2.28;0.90;;;;;;;19.20;82.26;100763.03;2040690;29;20024;-70
2023/09/14 01:32:06;;;;;;;1.25;0.90;;;;;;;19.19;82.52;100768.78;2033320;29;20048;-70
2023/09/14 01:33:10;;;;;;;2.20;0.90;;;;;;;19.19;82.33;100775.03;2033679;29;20963;-70
2023/09/14 01:34:20;;;;;;;1.75;0.80;;;;;;;19.19;82.36;100768.78;2025870;29;20032;-70
2023/09/14 01:35:21;;;;;;;1.83;1.05;;;;;;;19.18;82.39;100769.94;2026596;29;20072;-70
2023/09/14 01:36:48;;;;;;;1.42;0.90;;;;;;;19.18;82.53;100778.91;2025880;29;20083;-70
2023/09/14 01:37:50;;;;;;;3.08;1.00;;;;;;;19.17;82.56;100774.59;2030640;29;20141;-70
2023/09/14 01:38:53;;;;;;;3.10;0.93;;;;;;;19.16;82.36;100783.09;2026094;29;20868;-70
2023/09/14 01:39:56;;;;;;;1.73;0.90;;;;;;;19.13;82.58;100779.09;2026195;29;20033;-70
2023/09/14 01:40:59;;;;;;;2.22;0.90;;;;;;;19.14;82.51;100777.19;2033615;29;20028;-70
2023/09/14 01:42:03;;;;;;;1.50;1.00;;;;;;;19.12;82.67;100782.94;2033626;29;20753;-70
2023/09/14 01:43:07;;;;;;;2.42;0.82;;;;;;;19.12;82.64;100782.94;2033021;29;20167;-70
2023/09/14 01:44:21;;;;;;;1.73;0.90;;;;;;;19.12;82.51;100785.69;2033972;29;20046;-70
2023/09/14 01:45:25;;;;;;;2.03;1.00;;;;;;;19.12;82.68;100791.13;2033611;29;20994;-70
2023/09/14 01:46:26;;;;;;;1.35;0.73;;;;;;;19.12;82.71;100787.59;2033496;29;20902;-70
2023/09/14 01:47:28;;;;;;;3.90;1.00;;;;;;;19.13;82.68;100784.53;2033460;29;21244;-70
2023/09/14 01:48:30;;;;;;;2.30;0.88;;;;;;;19.12;82.73;100780.22;2033432;29;21258;-70
2023/09/14 01:49:32;;;;;;;3.95;1.10;;;;;;;19.13;82.55;100784.53;2033408;29;21214;-70
2023/09/14 01:50:33;;;;;;;3.63;1.10;;;;;;;19.11;82.60;100781.38;2033428;29;20108;-70
2023/09/14 01:51:35;;;;;;;2.08;0.90;;;;;;;19.11;82.69;100781.38;2033533;29;20021;-70
2023/09/14 01:52:39;;;;;;;2.88;1.02;;;;;;;19.10;82.75;100785.19;2040964;29;20796;-70
2023/09/14 01:54:00;;;;;;;1.75;1.02;;;;;;;19.11;82.61;100786.03;2025330;29;20029;-70
2023/09/14 01:55:12;;;;;;;1.67;1.00;;;;;;;19.11;82.52;100783.28;2028841;29;20083;-70
2023/09/14 01:56:16;;;;;;;1.38;0.80;;;;;;;19.09;82.40;100788.28;2033672;29;20029;-70
2023/09/14 01:57:21;;;;;;;2.88;0.80;;;;;;;19.10;82.65;100776.22;2026386;29;20029;-70
2023/09/14 01:58:26;;;;;;;1.83;0.70;;;;;;;19.08;82.44;100787.47;2033530;29;20028;-70
2023/09/14 01:59:28;;;;;;;2.28;0.80;;;;;;;19.07;82.48;100777.69;2025453;29;20025;-70
2023/09/14 02:00:32;;;;;;;6.75;3.08;;;;;;;19.08;82.43;100783.97;2025995;29;20907;-70
2023/09/14 02:01:34;;;;;;;4.40;1.70;;;;;;;19.07;82.29;100785.84;2025667;29;21003;-70
2023/09/14 02:02:41;;;;;;;4.18;1.70;;;;;;;19.07;82.42;100785.84;2027656;29;20069;-70
2023/09/14 02:03:43;;;;;;;1.65;0.93;;;;;;;19.06;82.30;100789.72;2033381;29;20819;-70
2023/09/14 02:04:47;;;;;;;2.22;0.90;;;;;;;19.04;82.30;100789.28;2033254;29;20231;-70
2023/09/14 02:06:01;;;;;;;1.42;0.82;;;;;;;19.05;82.33;100800.97;2032544;29;20089;-70
2023/09/14 02:07:03;;;;;;;2.30;1.10;;;;;;;19.03;82.27;100793.09;2027278;29;20093;-70
2023/09/14 02:08:12;;;;;;;2.22;0.88;;;;;;;19.01;82.34;100795.38;2026513;29;21252;-70
2023/09/14 02:09:13;;;;;;;1.95;0.80;;;;;;;19.02;82.35;100788.00;2041443;28;20810;-70
2023/09/14 02:10:26;;;;;;;2.40;0.90;;;;;;;19.00;82.47;100796.50;2048833;28;20063;-71
2023/09/14 02:11:27;;;;;;;2.72;0.95;;;;;;;18.98;82.38;100791.38;2042427;28;20123;-70
2023/09/14 02:12:49;;;;;;;2.22;1.05;;;;;;;18.96;82.52;100790.09;2040714;28;21023;-70
2023/09/14 02:13:51;;;;;;;2.55;1.17;;;;;;;18.98;82.58;100796.03;2035668;29;20032;-70
2023/09/14 02:14:53;;;;;;;3.03;1.00;;;;;;;18.97;82.64;100788.97;2025427;29;20896;-70
2023/09/14 02:15:55;;;;;;;2.55;0.88;;;;;;;18.97;82.73;100797.94;2033243;29;20876;-70
2023/09/14 02:16:57;;;;;;;1.80;0.80;;;;;;;18.95;82.67;100800.22;2033356;29;20029;-70
2023/09/14 02:18:00;;;;;;;3.88;0.93;;;;;;;18.96;82.79;100803.72;2033476;29;20120;-71
2023/09/14 02:19:02;;;;;;;6.28;1.00;;;;;;;18.93;82.70;100790.75;2033410;29;20025;-70
2023/09/14 02:20:07;;;;;;;1.52;0.80;;;;;;;18.92;83.07;100802.81;2040931;29;20035;-70
2023/09/14 02:21:17;;;;;;;1.50;0.70;;;;;;;18.90;83.09;100792.22;2041804;29;20038;-71
2023/09/14 02:22:19;;;;;;;2.53;0.77;;;;;;;18.90;83.20;100800.38;2043369;29;20032;-71
2023/09/14 02:23:22;;;;;;;2.22;0.90;;;;;;;18.88;83.13;100794.47;2042411;29;20139;-71
2023/09/14 02:24:24;;;;;;;1.88;0.80;;;;;;;18.89;83.14;100795.28;2041940;29;20127;-71
2023/09/14 02:25:26;;;;;;;2.03;0.90;;;;;;;18.89;83.17;100789.84;2034989;29;20101;-71
2023/09/14 02:26:28;;;;;;;2.08;0.90;;;;;;;18.89;83.21;100795.28;2042623;29;20860;-71
2023/09/14 02:27:32;;;;;;;1.13;0.80;;;;;;;18.89;83.16;100795.28;2042250;29;20047;-70
2023/09/14 02:28:34;;;;;;;1.67;0.80;;;;;;;18.88;83.24;100789.00;2042232;29;20020;-70
2023/09/14 02:29:35;;;;;;;2.25;0.80;;;;;;;18.89;83.12;100787.13;2034674;29;20904;-70
2023/09/14 02:30:40;;;;;;;1.13;0.70;;;;;;;18.87;83.32;100794.81;2034678;29;20033;-70
2023/09/14 02:31:42;;;;;;;1.35;0.70;;;;;;;18.87;83.34;100795.59;2042500;29;20146;-70
2023/09/14 02:32:43;;;;;;;0.90;0.70;;;;;;;18.88;83.36;100796.38;2042471;29;20065;-69
2023/09/14 02:33:52;;;;;;;1.10;0.80;;;;;;;18.87;83.35;100792.09;2042049;29;20142;-69
2023/09/14 02:34:54;;;;;;;0.77;0.70;;;;;;;18.88;83.43;100789.00;2042308;29;20228;-69
2023/09/14 02:35:56;;;;;;;1.95;0.95;;;;;;;18.87;83.54;100798.31;2042555;29;20079;-69
2023/09/14 02:36:57;;;;;;;3.45;0.70;;;;;;;18.87;83.49;100795.59;2042543;29;20147;-69
2023/09/14 02:37:59;;;;;;;2.08;0.90;;;;;;;18.87;83.39;100798.31;2042270;29;20028;-69
2023/09/14 02:39:01;;;;;;;2.67;0.82;;;;;;;18.87;83.50;100800.25;2026657;29;20270;-70
2023/09/14 02:40:06;;;;;;;1.95;1.10;;;;;;;18.87;83.49;100798.31;2027181;29;20069;-69
2023/09/14 02:41:17;;;;;;;4.07;0.85;;;;;;;18.88;83.52;100801.84;2042616;29;20040;-69
2023/09/14 02:42:37;;;;;;;2.13;0.73;;;;;;;18.88;83.30;100816.25;2040953;29;20028;-69
2023/09/14 02:43:39;;;;;;;2.17;0.88;;;;;;;18.88;83.39;100807.28;2034804;29;20192;-69
2023/09/14 02:44:41;;;;;;;3.20;0.90;;;;;;;18.87;83.48;100803.78;2034745;29;20096;-69
2023/09/14 02:45:42;;;;;;;2.45;0.80;;;;;;;18.87;83.52;100808.44;2041985;29;20048;-69
2023/09/14 02:46:48;;;;;;;2.55;0.70;;;;;;;18.87;83.51;100808.44;2027636;29;20041;-69
2023/09/14 02:48:10;;;;;;;1.85;1.00;;;;;;;18.86;83.50;100806.84;2024169;29;20033;-69
2023/09/14 02:49:12;;;;;;;0.82;0.70;;;;;;;18.84;83.50;100804.44;2029742;29;20028;-69
2023/09/14 02:50:15;;;;;;;1.65;0.70;;;;;;;18.84;83.47;100811.81;2033423;29;20033;-69
2023/09/14 02:51:19;;;;;;;2.40;0.90;;;;;;;18.83;83.48;100808.28;2041705;29;20104;-69
2023/09/14 02:52:21;;;;;;;0.98;0.70;;;;;;;18.83;83.39;100808.28;2041370;29;20074;-69
2023/09/14 02:53:23;;;;;;;4.15;0.80;;;;;;;18.82;83.43;100803.97;2033873;29;20017;-69
2023/09/14 02:54:28;;;;;;;1.88;0.70;;;;;;;18.83;83.39;100804.78;2033852;29;20873;-70
2023/09/14 02:55:33;;;;;;;2.00;0.80;;;;;;;18.81;83.40;100807.81;2033589;29;20733;-69
2023/09/14 02:56:35;;;;;;;1.10;0.70;;;;;;;18.81;83.45;100805.09;2033712;29;20036;-69
2023/09/14 02:57:38;;;;;;;4.07;1.10;;;;;;;18.80;83.49;100808.94;2025868;29;20041;-69
2023/09/14 02:58:45;;;;;;;1.65;0.93;;;;;;;18.78;83.60;100815.84;2033865;29;20029;-68
2023/09/14 02:59:47;;;;;;;3.67;0.60;;;;;;;18.78;83.46;100807.66;2041828;29;20745;-69
2023/09/14 03:00:48;;;;;;;1.63;0.68;;;;;;;18.78;83.64;100810.38;2033607;29;20031;-69
2023/09/14 03:01:52;;;;;;;3.95;0.88;;;;;;;18.77;83.55;100814.25;2033635;29;20028;-69
2023/09/14 03:02:54;;;;;;;1.40;0.70;;;;;;;18.77;83.60;100825.16;2033964;29;20063;-69
2023/09/14 03:03:57;;;;;;;2.50;0.88;;;;;;;18.75;83.58;100814.56;2033875;29;20060;-69
2023/09/14 03:04:58;;;;;;;2.58;0.80;;;;;;;18.75;83.50;100823.53;2041457;29;20791;-69
2023/09/14 03:06:00;;;;;;;2.05;0.68;;;;;;;18.73;83.67;100823.06;2041363;29;20054;-69
2023/09/14 03:07:22;;;;;;;3.72;0.60;;;;;;;18.73;83.53;100823.06;2034691;29;20100;-69
2023/09/14 03:08:23;;;;;;;1.23;0.70;;;;;;;18.72;83.52;100824.19;2029686;29;20152;-69
2023/09/14 03:09:25;;;;;;;1.40;0.65;;;;;;;18.71;83.55;100819.84;2042381;29;20044;-69
2023/09/14 03:10:27;;;;;;;1.92;0.70;;;;;;;18.72;83.64;100826.06;2034376;29;20171;-69
2023/09/14 03:11:29;;;;;;;3.50;1.10;;;;;;;18.70;83.53;100823.69;2034884;28;20039;-69
2023/09/14 03:12:31;;;;;;;4.22;1.13;;;;;;;18.67;83.63;100824.34;2041976;29;20032;-69
2023/09/14 03:13:33;;;;;;;1.63;0.60;;;;;;;18.67;83.58;100831.72;2034589;29;20135;-69
2023/09/14 03:14:46;;;;;;;1.65;0.80;;;;;;;18.66;83.30;100824.66;2042347;29;20071;-69
2023/09/14 03:15:52;;;;;;;0.93;0.57;;;;;;;18.64;83.65;100830.44;2034164;29;20943;-69
2023/09/14 03:16:54;;;;;;;1.98;0.75;;;;;;;18.63;83.84;100837.03;2027637;29;20025;-70
2023/09/14 03:17:56;;;;;;;1.52;0.75;;;;;;;18.63;83.79;100837.03;2034695;29;20040;-70
2023/09/14 03:18:58;;;;;;;1.35;0.60;;;;;;;18.62;83.91;100829.97;2042134;29;20034;-71
2023/09/14 03:20:00;;;;;;;1.70;0.60;;;;;;;18.62;83.88;100832.69;2042338;29;20040;-71
2023/09/14 03:21:04;;;;;;;2.42;0.70;;;;;;;18.62;83.60;100827.25;2042237;29;20124;-71
2023/09/14 03:22:07;;;;;;;4.40;0.70;;;;;;;18.63;84.02;100831.59;2042421;29;20904;-71
2023/09/14 03:23:10;;;;;;;3.17;0.80;;;;;;;18.63;84.15;100828.84;2041938;29;20876;-71
2023/09/14 03:24:12;;;;;;;2.60;0.73;;;;;;;18.63;84.09;100834.31;2034863;29;20029;-71
2023/09/14 03:25:13;;;;;;;2.72;0.68;;;;;;;18.62;84.19;100832.69;2034275;29;20039;-71
2023/09/14 03:26:15;;;;;;;3.03;0.70;;;;;;;18.61;84.21;100835.75;2026216;29;20037;-70
2023/09/14 03:27:17;;;;;;;2.45;0.90;;;;;;;18.61;84.24;100843.91;2026737;29;20040;-71
2023/09/14 03:28:19;;;;;;;3.22;0.95;;;;;;;18.60;84.25;100845.03;2041975;29;20047;-71
2023/09/14 03:29:22;;;;;;;1.50;0.60;;;;;;;18.58;84.34;100844.56;2034429;29;20036;-71
2023/09/14 03:30:30;;;;;;;1.40;0.60;;;;;;;18.57;84.28;100848.41;2026698;29;20053;-71
2023/09/14 03:31:52;;;;;;;3.63;0.65;;;;;;;18.56;84.27;100854.97;2028265;29;20221;-70
2023/09/14 03:32:54;;;;;;;1.42;0.65;;;;;;;18.53;84.26;100845.53;2041153;29;20052;-70
2023/09/14 03:33:55;;;;;;;2.72;0.82;;;;;;;18.54;84.34;100849.88;2041890;28;20029;-71
2023/09/14 03:34:57;;;;;;;1.42;0.65;;;;;;;18.55;84.36;100856.13;2042314;29;20147;-70
2023/09/14 03:35:59;;;;;;;1.70;0.70;;;;;;;18.53;84.22;100859.16;2041617;29;20047;-70
2023/09/14 03:37:01;;;;;;;1.73;0.93;;;;;;;18.55;84.31;100859.63;2026170;29;20029;-70
2023/09/14 03:38:03;;;;;;;1.67;0.73;;;;;;;18.54;84.31;100855.31;2034152;29;20028;-71
2023/09/14 03:39:05;;;;;;;2.30;0.70;;;;;;;18.54;84.18;100858.03;2041712;29;20155;-70
2023/09/14 03:40:12;;;;;;;1.30;0.60;;;;;;;18.53;84.40;100856.41;2042107;29;20032;-71
2023/09/14 03:41:14;;;;;;;1.02;0.65;;;;;;;18.49;84.40;100864.44;2033901;29;20159;-71
2023/09/14 03:42:23;;;;;;;2.25;0.80;;;;;;;18.49;84.43;100855.47;2033705;29;20143;-71
2023/09/14 03:43:24;;;;;;;1.88;0.70;;;;;;;18.49;84.42;100855.47;2033837;29;20906;-71
2023/09/14 03:44:27;;;;;;;2.15;0.68;;;;;;;18.46;84.61;100858.84;2025586;29;21260;-71
2023/09/14 03:45:28;;;;;;;1.77;0.65;;;;;;;18.47;84.50;100855.00;2026617;29;20114;-71
2023/09/14 03:46:32;;;;;;;1.55;0.50;;;;;;;18.47;84.57;100860.44;2041748;29;20231;-71
2023/09/14 03:47:33;;;;;;;1.88;0.75;;;;;;;18.47;84.53;100861.25;2034209;29;20149;-71
2023/09/14 03:48:54;;;;;;;1.02;0.50;;;;;;;18.47;84.43;100857.72;2041840;29;20036;-71
2023/09/14 03:49:56;;;;;;;5.00;0.60;;;;;;;18.48;84.49;100867.50;2032294;29;20075;-70
2023/09/14 03:50:59;;;;;;;2.22;0.50;;;;;;;18.48;84.58;100864.78;2026300;29;20182;-71
2023/09/14 03:52:00;;;;;;;1.92;0.60;;;;;;;18.48;84.54;100862.06;2026325;29;20045;-71
2023/09/14 03:53:05;;;;;;;2.40;0.57;;;;;;;18.48;84.67;100867.50;2034395;29;20922;-70
2023/09/14 03:54:09;;;;;;;1.13;0.50;;;;;;;18.48;84.52;100867.50;2025285;29;20045;-70
2023/09/14 03:55:11;;;;;;;1.55;0.52;;;;;;;18.50;84.57;100865.25;2026820;29;21166;-70
2023/09/14 03:56:12;;;;;;;2.38;0.70;;;;;;;18.51;84.57;100872.31;2033508;29;21046;-71
2023/09/14 03:57:14;;;;;;;4.18;0.70;;;;;;;18.50;84.57;100866.03;2041959;29;20044;-71
2023/09/14 03:58:17;;;;;;;1.38;0.57;;;;;;;18.52;84.56;100871.16;2042003;29;20112;-70
2023/09/14 03:59:21;;;;;;;2.38;0.55;;;;;;;18.53;84.32;100875.47;2040835;29;21029;-70
2023/09/14 04:00:29;;;;;;;1.48;0.50;;;;;;;18.55;84.32;100872.44;2033856;29;20044;-71
2023/09/14 04:01:32;;;;;;;1.02;0.47;;;;;;;18.55;84.39;100878.69;2033798;29;20035;-72
2023/09/14 04:02:33;;;;;;;1.27;0.60;;;;;;;18.57;84.25;100886.53;2034176;29;20040;-72
2023/09/14 04:03:36;;;;;;;0.63;0.50;;;;;;;18.56;84.36;100885.72;2034299;29;20920;-71
2023/09/14 04:04:42;;;;;;;2.08;0.57;;;;;;;18.57;84.37;100892.78;2041586;29;20051;-71
2023/09/14 04:05:44;;;;;;;0.68;0.40;;;;;;;18.56;84.34;100891.16;2040706;29;20124;-70
2023/09/14 04:06:49;;;;;;;1.15;0.40;;;;;;;18.58;84.32;100897.09;2026284;29;20104;-70
2023/09/14 04:07:51;;;;;;;1.75;0.50;;;;;;;18.58;84.22;100902.56;2032395;29;20032;-71
2023/09/14 04:08:53;;;;;;;2.13;0.50;;;;;;;18.59;84.24;100895.97;2036706;28;20847;-70
2023/09/14 04:09:55;;;;;;;3.05;0.60;;;;;;;18.59;84.13;100895.19;2042348;28;21005;-70
2023/09/14 04:10:59;;;;;;;1.25;0.60;;;;;;;18.60;84.15;100896.75;2049812;28;20028;-70
2023/09/14 04:12:02;;;;;;;1.90;0.47;;;;;;;18.58;84.28;100902.56;2042020;28;20040;-70
2023/09/14 04:13:29;;;;;;;1.95;0.43;;;;;;;18.59;84.47;100908.78;2029457;29;20035;-71
2023/09/14 04:14:33;;;;;;;1.17;0.60;;;;;;;18.58;84.37;100908.00;2037390;29;20036;-70
2023/09/14 04:15:42;;;;;;;4.15;0.65;;;;;;;18.59;84.48;100915.03;2033358;29;20028;-71
2023/09/14 04:16:45;;;;;;;1.52;0.60;;;;;;;18.58;84.53;100910.72;2027926;29;20033;-70
2023/09/14 04:17:47;;;;;;;1.70;0.60;;;;;;;18.58;84.69;100908.00;2033503;29;20085;-70
2023/09/14 04:18:48;;;;;;;0.82;0.40;;;;;;;18.59;84.66;100904.13;2025868;29;20033;-70
2023/09/14 04:19:50;;;;;;;3.80;0.70;;;;;;;18.60;84.85;100907.66;2025756;29;20056;-70
2023/09/14 04:20:53;;;;;;;2.60;0.82;;;;;;;18.60;84.80;100913.94;2041056;29;20806;-71
2023/09/14 04:21:55;;;;;;;1.83;0.57;;;;;;;18.59;84.70;100916.97;2041078;29;20048;-70
2023/09/14 04:22:58;;;;;;;1.23;0.70;;;;;;;18.58;84.77;100916.16;2034040;29;20040;-69
2023/09/14 04:24:06;;;;;;;2.65;0.75;;;;;;;18.59;84.80;100923.19;2041342;29;20043;-71
2023/09/14 04:25:08;;;;;;;1.00;0.70;;;;;;;18.60;84.89;100921.28;2034612;29;20025;-70
2023/09/14 04:26:10;;;;;;;1.52;0.63;;;;;;;18.61;84.85;100925.63;2026167;29;20045;-70
2023/09/14 04:27:14;;;;;;;0.80;0.55;;;;;;;18.60;84.86;100930.28;2026881;29;20060;-70
2023/09/14 04:28:18;;;;;;;7.30;0.80;;;;;;;18.61;84.88;100929.13;2026544;29;20033;-71
2023/09/14 04:29:20;;;;;;;2.33;0.73;;;;;;;18.61;84.80;100926.41;2033937;29;20044;-70
2023/09/14 04:30:22;;;;;;;2.42;0.73;;;;;;;18.58;84.95;100920.81;2026061;29;20044;-71
2023/09/14 04:31:26;;;;;;;1.10;0.70;;;;;;;18.59;85.24;100928.66;2033654;29;20119;-70
2023/09/14 04:33:07;;;;;;;1.58;0.60;;;;;;;18.59;85.21;100922.41;2036324;29;20025;-70
2023/09/14 04:34:09;;;;;;;2.22;0.70;;;;;;;18.60;85.42;100930.28;2040064;28;20099;-70
2023/09/14 04:35:13;;;;;;;1.70;0.70;;;;;;;18.60;85.41;100930.28;2033813;29;20044;-71
2023/09/14 04:36:22;;;;;;;2.40;0.68;;;;;;;18.60;85.42;100933.00;2033531;29;20040;-70
2023/09/14 04:37:29;;;;;;;5.70;0.80;;;;;;;18.59;85.42;100933.31;2031318;29;20029;-71
2023/09/14 04:38:32;;;;;;;1.67;0.65;;;;;;;18.59;85.45;100939.53;2024928;29;20384;-71
2023/09/14 04:39:35;;;;;;;2.03;0.70;;;;;;;18.59;85.53;100936.81;2031791;29;20041;-70
2023/09/14 04:40:42;;;;;;;1.05;0.52;;;;;;;18.59;85.46;100933.31;2031390;29;20053;-70
2023/09/14 04:41:43;;;;;;;1.30;0.50;;;;;;;18.59;85.46;100939.53;2040257;29;20067;-70
2023/09/14 04:42:49;;;;;;;2.03;0.60;;;;;;;18.59;85.51;100942.25;2039611;28;20143;-70
2023/09/14 04:43:54;;;;;;;1.85;0.47;;;;;;;18.56;85.69;100942.91;2031370;29;20037;-70
2023/09/14 04:45:26;;;;;;;1.10;0.40;;;;;;;18.54;85.51;100942.44;2024552;29;20049;-71
2023/09/14 04:46:30;;;;;;;1.10;0.43;;;;;;;18.54;85.74;100942.44;2037675;29;20055;-70
2023/09/14 04:47:43;;;;;;;3.13;0.60;;;;;;;18.57;85.60;100940.97;2039689;29;21403;-71
2023/09/14 04:48:58;;;;;;;1.00;0.50;;;;;;;18.57;85.60;100949.16;2039746;29;20032;-71
2023/09/14 04:50:00;;;;;;;1.00;0.70;;;;;;;18.57;85.53;100952.69;2033372;29;20156;-70
2023/09/14 04:51:01;;;;;;;4.07;0.50;;;;;;;18.59;85.69;100944.19;2038843;29;20055;-71
2023/09/14 04:52:07;;;;;;;2.05;0.50;;;;;;;18.60;85.49;100949.34;2039437;29;21410;-71
2023/09/14 04:53:12;;;;;;;1.40;0.60;;;;;;;18.61;85.63;100948.19;2039556;29;20076;-70
2023/09/14 04:54:14;;;;;;;1.92;0.50;;;;;;;18.61;85.52;100945.47;2031570;29;20074;-70
2023/09/14 04:55:17;;;;;;;1.48;0.70;;;;;;;18.62;85.58;100954.44;2031140;29;20028;-70
2023/09/14 04:56:19;;;;;;;2.17;0.77;;;;;;;18.62;85.43;100949.00;2024390;29;20033;-71
2023/09/14 04:57:24;;;;;;;1.27;0.47;;;;;;;18.63;85.61;100954.13;2031803;29;20176;-70
2023/09/14 04:58:28;;;;;;;2.03;0.52;;;;;;;18.62;85.66;100957.16;2039686;29;20939;-70
2023/09/14 04:59:30;;;;;;;0.63;0.30;;;;;;;18.58;85.56;100948.84;2039497;29;20028;-71
2023/09/14 05:00:33;;;;;;;0.63;0.40;;;;;;;18.61;85.67;100961.03;2039774;29;20044;-71
2023/09/14 05:01:35;;;;;;;1.65;0.50;;;;;;;18.62;85.73;100966.13;2031871;29;20116;-70
2023/09/14 05:02:38;;;;;;;2.47;0.65;;;;;;;18.61;85.74;100958.31;2039556;29;20044;-71